Terminal Aerodrome Forecast
Issued by NWS

Home | Current Version | Previous Version | Text Only | Print | Product List | Glossary Off
Versions: 1 2 3 4 5 6 7 8 9 10 11 12 13 14 15 16 17 18 19 20

000
FTUS41 KCLE 170300 AAB
TAFFDY
TAF AMD
KFDY 170342Z 1704/1724 25018G25KT P6SM OVC008
      TEMPO 1706/1709 5SM -SHRA
     FM170900 26018G25KT P6SM OVC015
     FM171700 27015G25KT P6SM SCT015 OVC025
     FM172100 27012G22KT P6SM OVC035=

USA.gov is the U.S. government's official web portal to all federal, state and local government web resources and services.